createdAt,value
2024-02-15T00:07:29.724Z,22.11
2024-02-15T00:17:36.420Z,22.11
2024-02-15T00:27:42.027Z,22.10
2024-02-15T00:37:48.505Z,22.10
2024-02-15T00:47:55.637Z,22.10
2024-02-15T00:58:01.189Z,22.10
2024-02-15T01:08:06.797Z,22.09
2024-02-15T01:18:12.696Z,22.09
2024-02-15T01:28:18.200Z,22.09
2024-02-15T01:38:23.552Z,22.06
2024-02-15T01:48:29.327Z,22.04
2024-02-15T01:58:35.856Z,22.02
2024-02-15T02:08:41.172Z,22.00
2024-02-15T02:18:48.578Z,21.98
2024-02-15T02:28:54.819Z,21.97
2024-02-15T02:39:02.405Z,21.96
2024-02-15T02:49:09.334Z,21.95
2024-02-15T02:59:15.078Z,21.95
2024-02-15T03:09:22.037Z,21.95
2024-02-15T03:19:28.265Z,21.96
2024-02-15T03:29:35.495Z,21.96
2024-02-15T03:39:40.990Z,21.97
2024-02-15T03:49:46.297Z,21.96
2024-02-15T03:59:55.834Z,21.96
2024-02-15T04:10:02.422Z,21.98
2024-02-15T04:20:08.854Z,21.98
2024-02-15T04:30:15.747Z,21.98
2024-02-15T04:40:21.598Z,21.97
2024-02-15T04:50:27.379Z,21.97
2024-02-15T05:00:32.870Z,21.97
2024-02-15T05:10:40.144Z,21.96
2024-02-15T05:20:45.949Z,21.96
2024-02-15T05:30:51.961Z,21.96
2024-02-15T05:40:58.091Z,21.96
2024-02-15T05:51:03.782Z,21.96
2024-02-15T06:01:12.151Z,22.00
2024-02-15T06:11:21.585Z,22.04
2024-02-15T06:21:27.449Z,22.08
2024-02-15T06:31:51.243Z,22.09
2024-02-15T06:41:57.733Z,22.08
2024-02-15T06:52:03.965Z,22.07
2024-02-15T07:02:09.852Z,22.09
2024-02-15T07:12:16.705Z,22.12
2024-02-15T07:22:23.528Z,22.16
2024-02-15T07:32:29.298Z,22.19
2024-02-15T07:42:36.325Z,22.22
2024-02-15T07:52:42.301Z,22.26
2024-02-15T08:02:48.981Z,22.32
2024-02-15T08:12:55.269Z,22.35
2024-02-15T08:23:01.073Z,22.40
2024-02-15T08:33:06.904Z,22.46
2024-02-15T08:43:13.152Z,22.46
2024-02-15T08:53:20.593Z,22.46
2024-02-15T09:03:26.162Z,22.45
2024-02-15T09:13:33.738Z,22.44
2024-02-15T09:23:40.436Z,22.40
2024-02-15T09:33:47.112Z,22.39
2024-02-15T09:43:53.473Z,22.39
2024-02-15T09:53:59.753Z,22.40
2024-02-15T10:04:08.545Z,22.43
2024-02-15T10:14:14.002Z,22.47
2024-02-15T10:24:20.996Z,22.52
2024-02-15T10:34:29.045Z,22.58
2024-02-15T10:44:36.148Z,22.65
2024-02-15T10:54:49.342Z,22.66
2024-02-15T11:04:58.036Z,22.67
2024-02-15T11:15:03.560Z,22.63
2024-02-15T11:25:13.085Z,22.58
2024-02-15T11:35:19.516Z,22.54
2024-02-15T11:45:26.941Z,22.47
2024-02-15T11:55:34.200Z,22.40
2024-02-15T12:05:57.652Z,22.34
2024-02-15T12:16:20.750Z,22.31
2024-02-15T12:26:26.405Z,22.28
2024-02-15T12:36:34.040Z,22.27
2024-02-15T12:46:40.362Z,22.28
2024-02-15T12:56:45.897Z,22.30
2024-02-15T13:06:51.546Z,22.32
2024-02-15T13:16:57.079Z,22.35
2024-02-15T13:27:02.621Z,22.38
2024-02-15T13:37:07.996Z,22.38
2024-02-15T13:47:14.593Z,22.37
2024-02-15T13:57:20.279Z,22.36
2024-02-15T14:07:25.814Z,22.35
2024-02-15T14:17:31.364Z,22.34
2024-02-15T14:27:36.827Z,22.40
2024-02-15T14:37:43.321Z,22.48
2024-02-15T14:47:49.225Z,22.56
2024-02-15T14:57:54.845Z,22.62
2024-02-15T15:08:17.877Z,22.66
2024-02-15T15:18:24.054Z,22.66
2024-02-15T15:28:30.306Z,22.66
2024-02-15T15:38:35.953Z,22.64
2024-02-15T15:48:41.825Z,22.62
2024-02-15T15:58:49.958Z,22.59
2024-02-15T16:08:58.917Z,22.56
2024-02-15T16:19:05.962Z,22.53
2024-02-15T16:29:11.774Z,22.51
2024-02-15T16:39:17.489Z,22.48
2024-02-15T16:49:23.141Z,22.46
2024-02-15T16:59:52.815Z,22.43
2024-02-15T17:09:59.391Z,22.42
2024-02-15T17:20:15.786Z,22.41
2024-02-15T17:30:21.651Z,22.40
2024-02-15T17:40:27.692Z,22.39
2024-02-15T17:50:33.582Z,22.39
2024-02-15T18:00:42.087Z,22.39
2024-02-15T18:10:48.590Z,22.37
2024-02-15T18:20:54.213Z,22.36
2024-02-15T18:30:59.755Z,22.37
2024-02-15T18:41:07.230Z,22.38
2024-02-15T18:51:16.433Z,22.40
2024-02-15T19:01:24.757Z,22.41
2024-02-15T19:11:30.393Z,22.41
2024-02-15T19:21:35.825Z,22.40
2024-02-15T19:31:42.078Z,22.39
2024-02-15T19:41:48.346Z,22.39
2024-02-15T19:51:54.160Z,22.38
2024-02-15T20:01:59.753Z,22.39
2024-02-15T20:12:05.540Z,22.40
2024-02-15T20:22:11.056Z,22.41
2024-02-15T20:32:20.064Z,22.41
2024-02-15T20:42:25.698Z,22.39
2024-02-15T20:52:31.721Z,22.38
2024-02-15T21:02:37.264Z,22.37
2024-02-15T21:12:43.096Z,22.36
2024-02-15T21:22:51.039Z,22.35
2024-02-15T21:32:57.114Z,22.34
2024-02-15T21:43:02.585Z,22.35
2024-02-15T21:53:08.057Z,22.34
2024-02-15T22:03:14.591Z,22.34
2024-02-15T22:13:20.660Z,22.33
2024-02-15T22:23:26.174Z,22.32
2024-02-15T22:33:32.408Z,22.31
2024-02-15T22:43:38.219Z,22.30
2024-02-15T22:53:45.075Z,22.28
2024-02-15T23:03:50.692Z,22.27
2024-02-15T23:13:56.793Z,22.25
2024-02-15T23:24:02.353Z,22.22
2024-02-15T23:34:09.487Z,22.21
2024-02-15T23:44:17.228Z,22.19
2024-02-15T23:54:23.052Z,22.19
